sensor_id;sensor_type;location;lat;lon;timestamp;temperature;humidity
23156;DHT22;11746;50.876;4.246;2024-03-02T00:00:39;6.90;99.90
23156;DHT22;11746;50.876;4.246;2024-03-02T00:03:07;7.00;99.90
23156;DHT22;11746;50.876;4.246;2024-03-02T00:05:35;7.00;99.90
23156;DHT22;11746;50.876;4.246;2024-03-02T00:08:01;7.10;99.90
23156;DHT22;11746;50.876;4.246;2024-03-02T00:10:39;7.00;99.90
23156;DHT22;11746;50.876;4.246;2024-03-02T00:13:06;7.10;99.90
23156;DHT22;11746;50.876;4.246;2024-03-02T00:15:41;7.10;99.90
23156;DHT22;11746;50.876;4.246;2024-03-02T00:18:15;7.20;99.90
23156;DHT22;11746;50.876;4.246;2024-03-02T00:20:47;7.20;99.90
23156;DHT22;11746;50.876;4.246;2024-03-02T00:23:18;7.10;99.90
23156;DHT22;11746;50.876;4.246;2024-03-02T00:28:31;7.20;99.90
23156;DHT22;11746;50.876;4.246;2024-03-02T00:31:06;7.20;99.90
23156;DHT22;11746;50.876;4.246;2024-03-02T00:33:42;7.20;99.90
23156;DHT22;11746;50.876;4.246;2024-03-02T00:36:09;7.40;99.90
23156;DHT22;11746;50.876;4.246;2024-03-02T00:41:17;7.20;99.90
23156;DHT22;11746;50.876;4.246;2024-03-02T00:43:59;7.30;99.90
23156;DHT22;11746;50.876;4.246;2024-03-02T00:46:28;7.30;99.90
23156;DHT22;11746;50.876;4.246;2024-03-02T00:49:02;7.30;99.90
23156;DHT22;11746;50.876;4.246;2024-03-02T00:51:32;7.20;99.90
23156;DHT22;11746;50.876;4.246;2024-03-02T00:54:03;7.30;99.90
23156;DHT22;11746;50.876;4.246;2024-03-02T00:56:30;7.30;99.90
23156;DHT22;11746;50.876;4.246;2024-03-02T00:59:00;7.30;99.90
23156;DHT22;11746;50.876;4.246;2024-03-02T01:01:28;7.30;99.90
23156;DHT22;11746;50.876;4.246;2024-03-02T01:03:54;7.40;99.90
23156;DHT22;11746;50.876;4.246;2024-03-02T01:06:19;7.30;99.90
23156;DHT22;11746;50.876;4.246;2024-03-02T01:08:47;7.30;99.90
23156;DHT22;11746;50.876;4.246;2024-03-02T01:11:16;7.30;99.90
23156;DHT22;11746;50.876;4.246;2024-03-02T01:13:45;7.30;99.90
23156;DHT22;11746;50.876;4.246;2024-03-02T01:16:11;7.40;99.90
23156;DHT22;11746;50.876;4.246;2024-03-02T01:18:41;7.30;99.90
23156;DHT22;11746;50.876;4.246;2024-03-02T01:21:07;7.30;99.90
23156;DHT22;11746;50.876;4.246;2024-03-02T01:23:33;7.20;99.90
23156;DHT22;11746;50.876;4.246;2024-03-02T01:26:01;7.20;99.90
23156;DHT22;11746;50.876;4.246;2024-03-02T01:28:27;7.30;99.90
23156;DHT22;11746;50.876;4.246;2024-03-02T01:30:53;7.30;99.90
23156;DHT22;11746;50.876;4.246;2024-03-02T01:33:21;7.20;99.90
23156;DHT22;11746;50.876;4.246;2024-03-02T01:35:47;7.20;99.90
23156;DHT22;11746;50.876;4.246;2024-03-02T01:38:13;7.30;99.90
23156;DHT22;11746;50.876;4.246;2024-03-02T01:40:39;7.40;99.90
23156;DHT22;11746;50.876;4.246;2024-03-02T01:43:09;7.40;99.90
23156;DHT22;11746;50.876;4.246;2024-03-02T01:45:35;7.30;99.90
23156;DHT22;11746;50.876;4.246;2024-03-02T01:48:06;7.40;99.90
23156;DHT22;11746;50.876;4.246;2024-03-02T01:50:32;7.30;99.90
23156;DHT22;11746;50.876;4.246;2024-03-02T01:52:59;7.40;99.90
23156;DHT22;11746;50.876;4.246;2024-03-02T01:55:25;7.40;99.90
23156;DHT22;11746;50.876;4.246;2024-03-02T01:57:55;7.40;99.90
23156;DHT22;11746;50.876;4.246;2024-03-02T02:00:21;7.30;99.90
23156;DHT22;11746;50.876;4.246;2024-03-02T02:02:50;7.30;99.90
23156;DHT22;11746;50.876;4.246;2024-03-02T02:05:20;7.50;99.90
23156;DHT22;11746;50.876;4.246;2024-03-02T02:07:48;7.50;99.90
23156;DHT22;11746;50.876;4.246;2024-03-02T02:10:14;7.40;99.90
23156;DHT22;11746;50.876;4.246;2024-03-02T02:12:42;7.40;99.90
23156;DHT22;11746;50.876;4.246;2024-03-02T02:15:28;7.40;99.90
23156;DHT22;11746;50.876;4.246;2024-03-02T02:17:57;7.50;99.90
23156;DHT22;11746;50.876;4.246;2024-03-02T02:20:26;7.30;99.90
23156;DHT22;11746;50.876;4.246;2024-03-02T02:22:56;7.40;99.90
23156;DHT22;11746;50.876;4.246;2024-03-02T02:25:22;7.50;99.90
23156;DHT22;11746;50.876;4.246;2024-03-02T02:27:47;7.50;99.90
23156;DHT22;11746;50.876;4.246;2024-03-02T02:30:25;7.50;99.90
23156;DHT22;11746;50.876;4.246;2024-03-02T02:32:54;7.50;99.90
23156;DHT22;11746;50.876;4.246;2024-03-02T02:35:19;7.40;99.90
23156;DHT22;11746;50.876;4.246;2024-03-02T02:37:49;7.30;99.90
23156;DHT22;11746;50.876;4.246;2024-03-02T02:40:18;7.40;99.90
23156;DHT22;11746;50.876;4.246;2024-03-02T02:42:46;7.40;99.90
23156;DHT22;11746;50.876;4.246;2024-03-02T02:45:15;7.50;99.90
23156;DHT22;11746;50.876;4.246;2024-03-02T02:47:41;7.50;99.90
23156;DHT22;11746;50.876;4.246;2024-03-02T02:50:07;7.50;99.90
23156;DHT22;11746;50.876;4.246;2024-03-02T02:52:39;7.50;99.90
23156;DHT22;11746;50.876;4.246;2024-03-02T02:55:09;7.40;99.90
23156;DHT22;11746;50.876;4.246;2024-03-02T02:57:38;7.50;99.90
23156;DHT22;11746;50.876;4.246;2024-03-02T03:00:08;7.50;99.90
23156;DHT22;11746;50.876;4.246;2024-03-02T03:02:44;7.50;99.90
23156;DHT22;11746;50.876;4.246;2024-03-02T03:05:12;7.40;99.90
23156;DHT22;11746;50.876;4.246;2024-03-02T03:07:41;7.40;99.90
23156;DHT22;11746;50.876;4.246;2024-03-02T03:10:08;7.50;99.90
23156;DHT22;11746;50.876;4.246;2024-03-02T03:12:36;7.50;99.90
23156;DHT22;11746;50.876;4.246;2024-03-02T03:15:02;7.50;99.90
23156;DHT22;11746;50.876;4.246;2024-03-02T03:17:30;7.50;99.90
23156;DHT22;11746;50.876;4.246;2024-03-02T03:19:58;7.50;99.90
23156;DHT22;11746;50.876;4.246;2024-03-02T03:22:23;7.60;99.90
23156;DHT22;11746;50.876;4.246;2024-03-02T03:24:49;7.60;99.90
23156;DHT22;11746;50.876;4.246;2024-03-02T03:27:17;7.50;99.90
23156;DHT22;11746;50.876;4.246;2024-03-02T03:29:43;7.50;99.90
23156;DHT22;11746;50.876;4.246;2024-03-02T03:32:08;7.50;99.90
23156;DHT22;11746;50.876;4.246;2024-03-02T03:34:34;7.50;99.90
23156;DHT22;11746;50.876;4.246;2024-03-02T03:37:00;7.40;99.90
23156;DHT22;11746;50.876;4.246;2024-03-02T03:39:26;7.50;99.90
23156;DHT22;11746;50.876;4.246;2024-03-02T03:41:51;7.50;99.90
23156;DHT22;11746;50.876;4.246;2024-03-02T03:44:17;7.50;99.90
23156;DHT22;11746;50.876;4.246;2024-03-02T03:46:45;7.40;99.90
23156;DHT22;11746;50.876;4.246;2024-03-02T03:49:10;7.30;99.90
23156;DHT22;11746;50.876;4.246;2024-03-02T03:51:36;7.40;99.90
23156;DHT22;11746;50.876;4.246;2024-03-02T03:54:04;7.30;99.90
23156;DHT22;11746;50.876;4.246;2024-03-02T03:56:32;7.30;99.90
23156;DHT22;11746;50.876;4.246;2024-03-02T03:58:57;7.30;99.90
23156;DHT22;11746;50.876;4.246;2024-03-02T04:01:25;7.30;99.90
23156;DHT22;11746;50.876;4.246;2024-03-02T04:03:50;7.30;99.90
23156;DHT22;11746;50.876;4.246;2024-03-02T04:06:16;7.40;99.90
23156;DHT22;11746;50.876;4.246;2024-03-02T04:08:42;7.50;99.90
23156;DHT22;11746;50.876;4.246;2024-03-02T04:11:08;7.50;99.90
23156;DHT22;11746;50.876;4.246;2024-03-02T04:13:36;7.50;99.90
23156;DHT22;11746;50.876;4.246;2024-03-02T04:16:02;7.50;99.90
23156;DHT22;11746;50.876;4.246;2024-03-02T04:18:29;7.50;99.90
23156;DHT22;11746;50.876;4.246;2024-03-02T04:20:57;7.60;99.90
23156;DHT22;11746;50.876;4.246;2024-03-02T04:23:26;7.60;99.90
23156;DHT22;11746;50.876;4.246;2024-03-02T04:25:51;7.50;99.90
23156;DHT22;11746;50.876;4.246;2024-03-02T04:28:17;7.50;99.90
23156;DHT22;11746;50.876;4.246;2024-03-02T04:30:45;7.40;99.90
23156;DHT22;11746;50.876;4.246;2024-03-02T04:33:12;7.30;99.90
23156;DHT22;11746;50.876;4.246;2024-03-02T04:35:41;7.30;99.90
23156;DHT22;11746;50.876;4.246;2024-03-02T04:38:11;7.40;99.90
23156;DHT22;11746;50.876;4.246;2024-03-02T04:40:36;7.30;99.90
23156;DHT22;11746;50.876;4.246;2024-03-02T04:43:04;7.30;99.90
23156;DHT22;11746;50.876;4.246;2024-03-02T04:45:30;7.30;99.90
23156;DHT22;11746;50.876;4.246;2024-03-02T04:47:58;7.30;99.90
23156;DHT22;11746;50.876;4.246;2024-03-02T04:50:23;7.30;99.90
23156;DHT22;11746;50.876;4.246;2024-03-02T04:52:49;7.20;99.90
23156;DHT22;11746;50.876;4.246;2024-03-02T04:55:19;7.30;99.90
23156;DHT22;11746;50.876;4.246;2024-03-02T04:57:47;7.20;99.90
23156;DHT22;11746;50.876;4.246;2024-03-02T05:00:13;7.30;99.90
23156;DHT22;11746;50.876;4.246;2024-03-02T05:02:39;7.40;99.90
23156;DHT22;11746;50.876;4.246;2024-03-02T05:05:07;7.30;99.90
23156;DHT22;11746;50.876;4.246;2024-03-02T05:07:32;7.20;99.90
23156;DHT22;11746;50.876;4.246;2024-03-02T05:09:58;7.20;99.90
23156;DHT22;11746;50.876;4.246;2024-03-02T05:12:26;7.20;99.90
23156;DHT22;11746;50.876;4.246;2024-03-02T05:15:14;7.10;99.90
23156;DHT22;11746;50.876;4.246;2024-03-02T05:17:42;7.10;99.90
23156;DHT22;11746;50.876;4.246;2024-03-02T05:20:11;7.10;99.90
23156;DHT22;11746;50.876;4.246;2024-03-02T05:22:39;7.10;99.90
23156;DHT22;11746;50.876;4.246;2024-03-02T05:25:09;7.00;99.90
23156;DHT22;11746;50.876;4.246;2024-03-02T05:27:37;7.00;99.90
23156;DHT22;11746;50.876;4.246;2024-03-02T05:30:06;6.90;99.90
23156;DHT22;11746;50.876;4.246;2024-03-02T05:32:34;7.00;99.90
23156;DHT22;11746;50.876;4.246;2024-03-02T05:35:00;7.00;99.90
23156;DHT22;11746;50.876;4.246;2024-03-02T05:37:28;7.10;99.90
23156;DHT22;11746;50.876;4.246;2024-03-02T05:39:53;7.00;99.90
23156;DHT22;11746;50.876;4.246;2024-03-02T05:42:21;7.00;99.90
23156;DHT22;11746;50.876;4.246;2024-03-02T05:44:47;7.00;99.90
23156;DHT22;11746;50.876;4.246;2024-03-02T05:47:15;6.90;99.90
23156;DHT22;11746;50.876;4.246;2024-03-02T05:49:46;6.90;99.90
23156;DHT22;11746;50.876;4.246;2024-03-02T05:52:12;6.80;99.90
23156;DHT22;11746;50.876;4.246;2024-03-02T05:54:38;6.90;99.90
23156;DHT22;11746;50.876;4.246;2024-03-02T05:57:04;6.80;99.90
23156;DHT22;11746;50.876;4.246;2024-03-02T05:59:42;6.80;99.90
23156;DHT22;11746;50.876;4.246;2024-03-02T06:02:09;6.70;99.90
23156;DHT22;11746;50.876;4.246;2024-03-02T06:04:34;6.70;99.90
23156;DHT22;11746;50.876;4.246;2024-03-02T06:07:05;6.60;99.90
23156;DHT22;11746;50.876;4.246;2024-03-02T06:09:32;6.70;99.90
23156;DHT22;11746;50.876;4.246;2024-03-02T06:11:58;6.70;99.90
23156;DHT22;11746;50.876;4.246;2024-03-02T06:14:24;6.70;99.90
23156;DHT22;11746;50.876;4.246;2024-03-02T06:16:49;6.80;99.90
23156;DHT22;11746;50.876;4.246;2024-03-02T06:19:17;6.80;99.90
23156;DHT22;11746;50.876;4.246;2024-03-02T06:21:45;6.70;99.90
23156;DHT22;11746;50.876;4.246;2024-03-02T06:24:11;6.60;99.90
23156;DHT22;11746;50.876;4.246;2024-03-02T06:26:36;6.60;99.90
23156;DHT22;11746;50.876;4.246;2024-03-02T06:29:02;6.60;99.90
23156;DHT22;11746;50.876;4.246;2024-03-02T06:31:30;6.50;99.90
23156;DHT22;11746;50.876;4.246;2024-03-02T06:33:55;6.50;99.90
23156;DHT22;11746;50.876;4.246;2024-03-02T06:36:21;6.60;99.90
23156;DHT22;11746;50.876;4.246;2024-03-02T06:38:46;6.60;99.90
23156;DHT22;11746;50.876;4.246;2024-03-02T06:41:12;6.50;99.90
23156;DHT22;11746;50.876;4.246;2024-03-02T06:43:40;6.50;99.90
23156;DHT22;11746;50.876;4.246;2024-03-02T06:46:05;6.50;99.90
23156;DHT22;11746;50.876;4.246;2024-03-02T06:48:34;6.60;99.90
23156;DHT22;11746;50.876;4.246;2024-03-02T06:51:03;6.70;99.90
23156;DHT22;11746;50.876;4.246;2024-03-02T06:53:28;6.70;99.90
23156;DHT22;11746;50.876;4.246;2024-03-02T06:55:55;6.60;99.90
23156;DHT22;11746;50.876;4.246;2024-03-02T06:58:21;6.60;99.90
23156;DHT22;11746;50.876;4.246;2024-03-02T07:00:46;6.60;99.90
23156;DHT22;11746;50.876;4.246;2024-03-02T07:03:13;6.60;99.90
23156;DHT22;11746;50.876;4.246;2024-03-02T07:05:39;6.70;99.90
23156;DHT22;11746;50.876;4.246;2024-03-02T07:08:09;6.80;99.90
23156;DHT22;11746;50.876;4.246;2024-03-02T07:10:37;6.80;99.90
23156;DHT22;11746;50.876;4.246;2024-03-02T07:13:03;6.80;99.90
23156;DHT22;11746;50.876;4.246;2024-03-02T07:15:29;6.80;99.90
23156;DHT22;11746;50.876;4.246;2024-03-02T07:18:15;6.80;99.90
23156;DHT22;11746;50.876;4.246;2024-03-02T07:20:41;6.80;99.90
23156;DHT22;11746;50.876;4.246;2024-03-02T07:23:06;6.80;99.90
23156;DHT22;11746;50.876;4.246;2024-03-02T07:25:32;6.80;99.90
23156;DHT22;11746;50.876;4.246;2024-03-02T07:27:58;6.80;99.90
23156;DHT22;11746;50.876;4.246;2024-03-02T07:30:24;6.90;99.90
23156;DHT22;11746;50.876;4.246;2024-03-02T07:32:52;6.90;99.90
23156;DHT22;11746;50.876;4.246;2024-03-02T07:35:18;7.00;99.90
23156;DHT22;11746;50.876;4.246;2024-03-02T07:37:47;7.00;99.90
23156;DHT22;11746;50.876;4.246;2024-03-02T07:40:13;7.10;99.90
23156;DHT22;11746;50.876;4.246;2024-03-02T07:42:40;7.10;99.90
23156;DHT22;11746;50.876;4.246;2024-03-02T07:45:08;7.30;99.90
23156;DHT22;11746;50.876;4.246;2024-03-02T07:47:34;7.40;99.90
23156;DHT22;11746;50.876;4.246;2024-03-02T07:50:00;7.30;99.90
23156;DHT22;11746;50.876;4.246;2024-03-02T07:52:26;7.40;99.90
23156;DHT22;11746;50.876;4.246;2024-03-02T07:54:51;7.40;99.90
23156;DHT22;11746;50.876;4.246;2024-03-02T07:57:17;7.30;99.90
23156;DHT22;11746;50.876;4.246;2024-03-02T07:59:47;7.40;99.90
23156;DHT22;11746;50.876;4.246;2024-03-02T08:02:13;7.50;99.90
23156;DHT22;11746;50.876;4.246;2024-03-02T08:04:38;7.50;99.90
23156;DHT22;11746;50.876;4.246;2024-03-02T08:07:04;7.60;99.90
23156;DHT22;11746;50.876;4.246;2024-03-02T08:09:30;7.70;99.90
23156;DHT22;11746;50.876;4.246;2024-03-02T08:11:58;7.80;99.90
23156;DHT22;11746;50.876;4.246;2024-03-02T08:14:24;7.80;99.90
23156;DHT22;11746;50.876;4.246;2024-03-02T08:16:52;7.80;99.90
23156;DHT22;11746;50.876;4.246;2024-03-02T08:19:20;7.80;99.90
23156;DHT22;11746;50.876;4.246;2024-03-02T08:21:46;7.90;99.90
23156;DHT22;11746;50.876;4.246;2024-03-02T08:24:11;7.90;99.90
23156;DHT22;11746;50.876;4.246;2024-03-02T08:26:37;7.90;99.90
23156;DHT22;11746;50.876;4.246;2024-03-02T08:29:04;7.90;99.90
23156;DHT22;11746;50.876;4.246;2024-03-02T08:31:30;7.80;99.90
23156;DHT22;11746;50.876;4.246;2024-03-02T08:33:58;7.90;99.90
23156;DHT22;11746;50.876;4.246;2024-03-02T08:36:24;7.90;99.90
23156;DHT22;11746;50.876;4.246;2024-03-02T08:38:50;7.90;99.90
23156;DHT22;11746;50.876;4.246;2024-03-02T08:41:16;8.00;99.90
23156;DHT22;11746;50.876;4.246;2024-03-02T08:43:42;8.10;99.90
23156;DHT22;11746;50.876;4.246;2024-03-02T08:46:08;8.20;99.90
23156;DHT22;11746;50.876;4.246;2024-03-02T08:48:34;8.40;99.90
23156;DHT22;11746;50.876;4.246;2024-03-02T08:51:00;8.60;99.90
23156;DHT22;11746;50.876;4.246;2024-03-02T08:53:26;8.70;99.90
23156;DHT22;11746;50.876;4.246;2024-03-02T08:55:51;8.80;99.90
23156;DHT22;11746;50.876;4.246;2024-03-02T08:58:17;8.80;99.90
23156;DHT22;11746;50.876;4.246;2024-03-02T09:00:43;9.00;99.90
23156;DHT22;11746;50.876;4.246;2024-03-02T09:03:11;9.10;99.90
23156;DHT22;11746;50.876;4.246;2024-03-02T09:05:37;9.00;99.90
23156;DHT22;11746;50.876;4.246;2024-03-02T09:08:06;9.10;99.90
23156;DHT22;11746;50.876;4.246;2024-03-02T09:10:32;9.10;99.90
23156;DHT22;11746;50.876;4.246;2024-03-02T09:13:01;9.20;99.90
23156;DHT22;11746;50.876;4.246;2024-03-02T09:15:27;9.20;99.90
23156;DHT22;11746;50.876;4.246;2024-03-02T09:17:52;9.30;99.90
23156;DHT22;11746;50.876;4.246;2024-03-02T09:20:20;9.20;99.90
23156;DHT22;11746;50.876;4.246;2024-03-02T09:22:49;9.30;99.90
23156;DHT22;11746;50.876;4.246;2024-03-02T09:25:15;9.40;99.90
23156;DHT22;11746;50.876;4.246;2024-03-02T09:27:46;9.50;99.90
23156;DHT22;11746;50.876;4.246;2024-03-02T09:30:12;9.60;99.90
23156;DHT22;11746;50.876;4.246;2024-03-02T09:32:40;9.60;99.90
23156;DHT22;11746;50.876;4.246;2024-03-02T09:35:06;9.70;99.90
23156;DHT22;11746;50.876;4.246;2024-03-02T09:37:32;9.70;99.90
23156;DHT22;11746;50.876;4.246;2024-03-02T09:40:00;9.70;99.90
23156;DHT22;11746;50.876;4.246;2024-03-02T09:42:28;9.70;99.90
23156;DHT22;11746;50.876;4.246;2024-03-02T09:44:54;9.70;99.90
23156;DHT22;11746;50.876;4.246;2024-03-02T09:47:22;9.80;99.90
23156;DHT22;11746;50.876;4.246;2024-03-02T09:49:50;9.90;99.90
23156;DHT22;11746;50.876;4.246;2024-03-02T09:52:19;9.80;99.90
23156;DHT22;11746;50.876;4.246;2024-03-02T09:54:47;9.80;99.90
23156;DHT22;11746;50.876;4.246;2024-03-02T09:57:13;9.80;99.90
23156;DHT22;11746;50.876;4.246;2024-03-02T09:59:38;9.80;99.90
23156;DHT22;11746;50.876;4.246;2024-03-02T10:02:04;9.80;99.90
23156;DHT22;11746;50.876;4.246;2024-03-02T10:04:37;9.90;99.90
23156;DHT22;11746;50.876;4.246;2024-03-02T10:09:34;10.00;99.90
23156;DHT22;11746;50.876;4.246;2024-03-02T10:12:07;10.10;99.90
23156;DHT22;11746;50.876;4.246;2024-03-02T10:14:34;10.10;99.90
23156;DHT22;11746;50.876;4.246;2024-03-02T10:17:04;10.10;99.90
23156;DHT22;11746;50.876;4.246;2024-03-02T10:19:31;10.10;99.90
23156;DHT22;11746;50.876;4.246;2024-03-02T10:22:05;10.20;99.90
23156;DHT22;11746;50.876;4.246;2024-03-02T10:24:36;10.30;99.90
23156;DHT22;11746;50.876;4.246;2024-03-02T10:27:07;10.50;99.90
23156;DHT22;11746;50.876;4.246;2024-03-02T10:29:36;10.60;99.90
23156;DHT22;11746;50.876;4.246;2024-03-02T10:32:07;10.80;99.90
23156;DHT22;11746;50.876;4.246;2024-03-02T10:34:40;10.80;99.90
23156;DHT22;11746;50.876;4.246;2024-03-02T10:37:07;11.00;99.90
23156;DHT22;11746;50.876;4.246;2024-03-02T10:39:34;11.10;99.90
23156;DHT22;11746;50.876;4.246;2024-03-02T10:42:06;11.20;99.90
23156;DHT22;11746;50.876;4.246;2024-03-02T10:44:32;11.30;99.90
23156;DHT22;11746;50.876;4.246;2024-03-02T10:47:05;11.20;99.90
23156;DHT22;11746;50.876;4.246;2024-03-02T10:49:32;11.30;99.90
23156;DHT22;11746;50.876;4.246;2024-03-02T10:52:01;11.30;99.90
23156;DHT22;11746;50.876;4.246;2024-03-02T10:54:27;11.10;99.90
23156;DHT22;11746;50.876;4.246;2024-03-02T10:56:58;11.20;99.90
23156;DHT22;11746;50.876;4.246;2024-03-02T10:59:37;11.30;99.90
23156;DHT22;11746;50.876;4.246;2024-03-02T11:02:05;11.40;99.90
23156;DHT22;11746;50.876;4.246;2024-03-02T11:04:34;11.30;99.90
23156;DHT22;11746;50.876;4.246;2024-03-02T11:07:09;11.20;99.90
23156;DHT22;11746;50.876;4.246;2024-03-02T11:09:41;11.40;99.90
23156;DHT22;11746;50.876;4.246;2024-03-02T11:12:28;11.50;99.90
23156;DHT22;11746;50.876;4.246;2024-03-02T11:14:55;11.60;99.90
23156;DHT22;11746;50.876;4.246;2024-03-02T11:17:21;11.50;99.90
23156;DHT22;11746;50.876;4.246;2024-03-02T11:19:48;11.50;99.90
23156;DHT22;11746;50.876;4.246;2024-03-02T11:22:15;11.40;99.90
23156;DHT22;11746;50.876;4.246;2024-03-02T11:24:51;11.40;99.90
23156;DHT22;11746;50.876;4.246;2024-03-02T11:33:04;11.60;99.90
23156;DHT22;11746;50.876;4.246;2024-03-02T11:35:40;11.60;99.90
23156;DHT22;11746;50.876;4.246;2024-03-02T11:38:09;11.50;99.90
23156;DHT22;11746;50.876;4.246;2024-03-02T11:40:37;11.50;99.90
23156;DHT22;11746;50.876;4.246;2024-03-02T11:43:05;11.60;99.90
23156;DHT22;11746;50.876;4.246;2024-03-02T11:45:31;11.60;99.90
23156;DHT22;11746;50.876;4.246;2024-03-02T11:47:59;11.50;99.90
23156;DHT22;11746;50.876;4.246;2024-03-02T11:50:36;11.60;99.90
23156;DHT22;11746;50.876;4.246;2024-03-02T11:53:09;11.50;99.90
23156;DHT22;11746;50.876;4.246;2024-03-02T11:55:39;11.60;99.90
23156;DHT22;11746;50.876;4.246;2024-03-02T11:58:12;11.70;99.90
23156;DHT22;11746;50.876;4.246;2024-03-02T12:00:40;12.10;99.90
23156;DHT22;11746;50.876;4.246;2024-03-02T12:03:07;12.40;99.90
23156;DHT22;11746;50.876;4.246;2024-03-02T12:05:34;12.50;99.90
23156;DHT22;11746;50.876;4.246;2024-03-02T12:08:07;12.70;99.90
23156;DHT22;11746;50.876;4.246;2024-03-02T12:10:34;12.80;99.90
23156;DHT22;11746;50.876;4.246;2024-03-02T12:13:03;12.70;99.90
23156;DHT22;11746;50.876;4.246;2024-03-02T12:15:30;12.70;99.90
23156;DHT22;11746;50.876;4.246;2024-03-02T12:17:57;12.70;99.90
23156;DHT22;11746;50.876;4.246;2024-03-02T12:20:25;12.70;99.90
23156;DHT22;11746;50.876;4.246;2024-03-02T12:22:55;12.60;99.90
23156;DHT22;11746;50.876;4.246;2024-03-02T12:25:24;12.80;99.90
23156;DHT22;11746;50.876;4.246;2024-03-02T12:27:55;13.00;99.90
23156;DHT22;11746;50.876;4.246;2024-03-02T12:30:23;13.30;99.90
23156;DHT22;11746;50.876;4.246;2024-03-02T12:32:52;13.40;99.90
23156;DHT22;11746;50.876;4.246;2024-03-02T12:35:18;13.40;99.90
23156;DHT22;11746;50.876;4.246;2024-03-02T12:37:48;13.20;99.90
23156;DHT22;11746;50.876;4.246;2024-03-02T12:40:16;13.10;99.90
23156;DHT22;11746;50.876;4.246;2024-03-02T12:42:48;13.00;99.90
23156;DHT22;11746;50.876;4.246;2024-03-02T12:45:15;13.00;99.90
23156;DHT22;11746;50.876;4.246;2024-03-02T12:47:42;13.00;99.90
23156;DHT22;11746;50.876;4.246;2024-03-02T12:50:10;13.10;99.90
23156;DHT22;11746;50.876;4.246;2024-03-02T12:52:36;13.00;99.90
23156;DHT22;11746;50.876;4.246;2024-03-02T12:55:05;12.90;99.90
23156;DHT22;11746;50.876;4.246;2024-03-02T12:57:32;12.80;99.90
23156;DHT22;11746;50.876;4.246;2024-03-02T13:00:05;12.80;99.90
23156;DHT22;11746;50.876;4.246;2024-03-02T13:02:40;12.70;99.90
23156;DHT22;11746;50.876;4.246;2024-03-02T13:05:07;12.70;99.90
23156;DHT22;11746;50.876;4.246;2024-03-02T13:07:37;12.70;99.90
23156;DHT22;11746;50.876;4.246;2024-03-02T13:10:06;12.50;99.90
23156;DHT22;11746;50.876;4.246;2024-03-02T13:12:35;12.50;99.90
23156;DHT22;11746;50.876;4.246;2024-03-02T13:15:04;12.60;99.90
23156;DHT22;11746;50.876;4.246;2024-03-02T13:17:36;12.70;99.90
23156;DHT22;11746;50.876;4.246;2024-03-02T13:20:03;12.80;99.90
23156;DHT22;11746;50.876;4.246;2024-03-02T13:22:29;12.80;99.90
23156;DHT22;11746;50.876;4.246;2024-03-02T13:24:58;13.00;99.90
23156;DHT22;11746;50.876;4.246;2024-03-02T13:27:25;13.00;99.90
23156;DHT22;11746;50.876;4.246;2024-03-02T13:29:50;13.00;99.90
23156;DHT22;11746;50.876;4.246;2024-03-02T13:32:19;13.00;99.90
23156;DHT22;11746;50.876;4.246;2024-03-02T13:34:49;13.10;99.90
23156;DHT22;11746;50.876;4.246;2024-03-02T13:37:14;13.00;99.90
23156;DHT22;11746;50.876;4.246;2024-03-02T13:39:40;12.90;99.90
23156;DHT22;11746;50.876;4.246;2024-03-02T13:42:09;13.00;99.90
23156;DHT22;11746;50.876;4.246;2024-03-02T13:44:43;12.90;99.90
23156;DHT22;11746;50.876;4.246;2024-03-02T13:47:15;13.00;99.90
23156;DHT22;11746;50.876;4.246;2024-03-02T13:49:43;13.10;99.90
23156;DHT22;11746;50.876;4.246;2024-03-02T13:52:11;12.90;99.90
23156;DHT22;11746;50.876;4.246;2024-03-02T13:54:43;12.90;99.90
23156;DHT22;11746;50.876;4.246;2024-03-02T13:57:10;12.80;99.90
23156;DHT22;11746;50.876;4.246;2024-03-02T13:59:36;12.80;99.90
23156;DHT22;11746;50.876;4.246;2024-03-02T14:02:08;12.80;99.90
23156;DHT22;11746;50.876;4.246;2024-03-02T14:04:36;12.80;99.90
23156;DHT22;11746;50.876;4.246;2024-03-02T14:07:02;12.80;99.90
23156;DHT22;11746;50.876;4.246;2024-03-02T14:09:29;12.90;99.90
23156;DHT22;11746;50.876;4.246;2024-03-02T14:11:57;12.90;99.90
23156;DHT22;11746;50.876;4.246;2024-03-02T14:14:22;13.10;99.90
23156;DHT22;11746;50.876;4.246;2024-03-02T14:16:48;13.00;99.90
23156;DHT22;11746;50.876;4.246;2024-03-02T14:19:14;12.80;99.90
23156;DHT22;11746;50.876;4.246;2024-03-02T14:21:42;13.00;99.90
23156;DHT22;11746;50.876;4.246;2024-03-02T14:24:08;13.00;99.90
23156;DHT22;11746;50.876;4.246;2024-03-02T14:26:35;12.90;99.90
23156;DHT22;11746;50.876;4.246;2024-03-02T14:29:06;12.80;99.90
23156;DHT22;11746;50.876;4.246;2024-03-02T14:31:34;12.80;99.90
23156;DHT22;11746;50.876;4.246;2024-03-02T14:34:03;12.70;99.90
23156;DHT22;11746;50.876;4.246;2024-03-02T14:36:31;12.70;99.90
23156;DHT22;11746;50.876;4.246;2024-03-02T14:38:57;12.80;99.90
23156;DHT22;11746;50.876;4.246;2024-03-02T14:41:22;12.70;99.90
23156;DHT22;11746;50.876;4.246;2024-03-02T14:43:51;12.70;99.90
23156;DHT22;11746;50.876;4.246;2024-03-02T14:46:17;12.70;99.90
23156;DHT22;11746;50.876;4.246;2024-03-02T14:48:43;12.60;99.90
23156;DHT22;11746;50.876;4.246;2024-03-02T14:51:14;12.50;99.90
23156;DHT22;11746;50.876;4.246;2024-03-02T14:53:39;12.30;99.90
23156;DHT22;11746;50.876;4.246;2024-03-02T14:56:08;12.20;99.90
23156;DHT22;11746;50.876;4.246;2024-03-02T14:58:33;12.20;99.90
23156;DHT22;11746;50.876;4.246;2024-03-02T15:01:00;12.30;99.90
23156;DHT22;11746;50.876;4.246;2024-03-02T15:03:28;12.40;99.90
23156;DHT22;11746;50.876;4.246;2024-03-02T15:05:54;12.40;99.90
23156;DHT22;11746;50.876;4.246;2024-03-02T15:08:24;12.40;99.90
23156;DHT22;11746;50.876;4.246;2024-03-02T15:10:50;12.40;99.90
23156;DHT22;11746;50.876;4.246;2024-03-02T15:13:20;12.40;99.90
23156;DHT22;11746;50.876;4.246;2024-03-02T15:15:46;12.40;99.90
23156;DHT22;11746;50.876;4.246;2024-03-02T15:18:14;12.50;99.90
23156;DHT22;11746;50.876;4.246;2024-03-02T15:20:40;12.60;99.90
23156;DHT22;11746;50.876;4.246;2024-03-02T15:23:06;12.50;99.90
23156;DHT22;11746;50.876;4.246;2024-03-02T15:25:31;12.50;99.90
23156;DHT22;11746;50.876;4.246;2024-03-02T15:27:59;12.50;99.90
23156;DHT22;11746;50.876;4.246;2024-03-02T15:30:25;12.40;99.90
23156;DHT22;11746;50.876;4.246;2024-03-02T15:32:51;12.50;99.90
23156;DHT22;11746;50.876;4.246;2024-03-02T15:35:21;12.40;99.90
23156;DHT22;11746;50.876;4.246;2024-03-02T15:37:49;12.40;99.90
23156;DHT22;11746;50.876;4.246;2024-03-02T15:40:15;12.30;99.90
23156;DHT22;11746;50.876;4.246;2024-03-02T15:42:41;12.40;99.90
23156;DHT22;11746;50.876;4.246;2024-03-02T15:45:09;12.30;99.90
23156;DHT22;11746;50.876;4.246;2024-03-02T15:47:35;12.40;99.90
23156;DHT22;11746;50.876;4.246;2024-03-02T15:50:04;12.40;99.90
23156;DHT22;11746;50.876;4.246;2024-03-02T15:52:30;12.40;99.90
23156;DHT22;11746;50.876;4.246;2024-03-02T15:54:59;12.30;99.90
23156;DHT22;11746;50.876;4.246;2024-03-02T15:57:24;12.30;99.90